Flood From: 18-02-2018 16:00 Until: 19-02-2018 16:00 warning for: Flood Level: Yellow info button

Although rather usual in this region, locally or potentially dangerous phenomena are expected. (such as local winds, summer thunderstorms, rising streams or high waves) Be aware and pay attention to the latest weather updates, especially if you carry out activities exposed to weather or close to a stream or shoreline. 


Meteo18 Weather Cam more information Meteo18 Weather Cam


Thunder radar more information blitzortung!


Rain radar more information rain snow radar


Visit our other weather sites:

Template documentation
and downloads

And another site



Weather Underground History page Text

Daily Summary for May 19, 2017 Units:  English    Metric   Both
« Previous Day
Next Day »
Daily Weekly Monthly Yearly Custom
  High: Low: Average:
Temperature: TemperatureC °F 8.1 °F 10.4 °F
Dew Point: DewpointC °F 6.4 °F 8 °F
Humidity: Humidity % 62 % 85 %
Wind Speed: WindSpeedKMH mph 0.0 mph 6.3 mph
Wind Gust: WindSpeedGustKMH mph - -
Wind:- - WSW
Pressure: PressurehPa in 1015.1 in -
Precipitation: 8.9 in    
Historical Graphs
 
 
Tabular Data for May 19, 2017
Time Temperature Dew Point Pressure Wind Wind Speed Wind Gust Humidity Rainfall Rate (Hourly)
TemperatureC °F DewpointC °F PressurehPa in Calm     Humidity % HourlyPrecipMM in
00:02 10.4 °F 9.5 °F 1015.1 in WSW 9.7 mph 24.1 mph 94 % 0.8 in
00:07 10.4 °F 9.5 °F 1015.5 in SW 8.0 mph 22.5 mph 94 % 1.0 in
00:12 10.4 °F 9.5 °F 1015.5 in WSW 8.0 mph 22.5 mph 94 % 0.8 in
00:17 10.4 °F 9.5 °F 1015.5 in SW 12.9 mph 22.5 mph 94 % 0.8 in
00:22 10.4 °F 9.5 °F 1015.5 in SW 9.7 mph 22.5 mph 94 % 0.8 in
00:27 10.3 °F 9.4 °F 1015.5 in WSW 14.5 mph 20.9 mph 94 % 0.8 in
00:32 10.3 °F 9.4 °F 1015.5 in SW 11.3 mph 20.9 mph 94 % 0.8 in
00:42 10.3 °F 9.4 °F 1015.5 in SW 9.7 mph 22.5 mph 94 % 0.5 in
00:47 10.3 °F 9.4 °F 1015.5 in SW 11.3 mph 22.5 mph 94 % 0.8 in
00:52 10.3 °F 9.5 °F 1015.5 in SW 14.5 mph 20.9 mph 95 % 0.8 in
00:57 10.2 °F 9.4 °F 1015.5 in West 3.2 mph 25.7 mph 95 % 0.8 in
01:02 10.2 °F 9.4 °F 1015.5 in SSW 11.3 mph 25.7 mph 95 % 0.8 in
01:07 10.2 °F 9.3 °F 1015.5 in SW 11.3 mph 25.7 mph 94 % 0.5 in
01:12 10.2 °F 9.3 °F 1015.1 in WSW 11.3 mph 19.3 mph 94 % 0.8 in
01:17 10.1 °F 9.2 °F 1015.5 in WSW 6.4 mph 19.3 mph 94 % 0.8 in
01:22 10.1 °F 9.2 °F 1015.5 in WSW 11.3 mph 19.3 mph 94 % 0.8 in
01:27 10.1 °F 9.2 °F 1015.5 in West 8.0 mph 19.3 mph 94 % 0.8 in
01:32 10.1 °F 9.2 °F 1015.5 in SW 12.9 mph 19.3 mph 94 % 1.0 in
01:37 10.0 °F 8.9 °F 1015.5 in West 6.4 mph 19.3 mph 93 % 0.8 in
01:42 9.9 °F 8.8 °F 1015.5 in West 9.7 mph 19.3 mph 93 % 0.8 in
01:47 9.8 °F 8.6 °F 1015.5 in West 6.4 mph 16.1 mph 92 % 0.5 in
01:52 9.7 °F 8.5 °F 1015.5 in WSW 12.9 mph 14.5 mph 92 % 0.5 in
01:57 9.6 °F 8.2 °F 1015.5 in West 11.3 mph 16.1 mph 91 % 0.5 in
02:02 9.5 °F 8.1 °F 1015.5 in WNW 4.8 mph 16.1 mph 91 % 0.5 in
02:07 9.3 °F 7.9 °F 1015.5 in West 11.3 mph 16.1 mph 91 % 0.3 in
02:12 9.2 °F 7.8 °F 1015.5 in West 8.0 mph 16.1 mph 91 % 0.3 in
02:17 9.1 °F 7.7 °F 1015.5 in SW 4.8 mph 16.1 mph 91 % 0.3 in
02:22 8.9 °F 7.5 °F 1015.5 in West 3.2 mph 16.1 mph 91 % 0.3 in
02:27 8.9 °F 7.7 °F 1015.5 in West 6.4 mph 17.7 mph 92 % 0.3 in
02:32 8.9 °F 7.7 °F 1015.5 in WNW 3.2 mph 17.7 mph 92 % 0.0 in
02:39 8.8 °F 7.6 °F 1015.5 in NW 8.0 mph 17.7 mph 92 % 0.0 in
02:47 8.8 °F 7.6 °F 1015.5 in NW 4.8 mph 17.7 mph 92 % 0.0 in
02:52 8.7 °F 7.5 °F 1015.5 in WNW 4.8 mph 17.7 mph 92 % 0.0 in
03:02 8.7 °F 7.3 °F 1015.5 in WNW 3.2 mph 12.9 mph 91 % 0.0 in
03:07 8.7 °F 7.3 °F 1015.5 in West 1.6 mph 11.3 mph 91 % 0.0 in
03:12 8.7 °F 7.5 °F 1015.5 in WNW 3.2 mph 11.3 mph 92 % 0.0 in
03:17 8.7 °F 7.5 °F 1015.5 in Calm   9.7 mph 92 % 0.0 in
03:22 8.7 °F 7.5 °F 1015.5 in Calm   9.7 mph 92 % 0.0 in
03:27 8.7 °F 7.5 °F 1015.5 in West 1.6 mph 6.4 mph 92 % 0.0 in
03:32 8.7 °F 7.6 °F 1015.5 in West 4.8 mph 6.4 mph 93 % 0.0 in
03:37 8.7 °F 7.6 °F 1015.5 in West 3.2 mph 8.0 mph 93 % 0.0 in
03:42 8.8 °F 7.7 °F 1015.5 in WSW 3.2 mph 8.0 mph 93 % 0.0 in
03:47 8.8 °F 7.9 °F 1015.5 in West 1.6 mph 9.7 mph 94 % 0.0 in
03:52 8.8 °F 7.9 °F 1015.5 in SW 3.2 mph 9.7 mph 94 % 0.0 in
03:57 8.8 °F 7.9 °F 1015.5 in WSW 4.8 mph 9.7 mph 94 % 0.0 in
04:02 8.8 °F 7.9 °F 1015.5 in West 3.2 mph 9.7 mph 94 % 0.0 in
04:12 8.8 °F 7.9 °F 1015.5 in SW 3.2 mph 8.0 mph 94 % 0.0 in
04:17 8.8 °F 7.9 °F 1015.5 in WSW 3.2 mph 8.0 mph 94 % 0.0 in
04:27 8.9 °F 8.0 °F 1015.5 in WSW 4.8 mph 8.0 mph 94 % 0.0 in
04:32 8.9 °F 8.0 °F 1015.5 in WSW 3.2 mph 8.0 mph 94 % 0.0 in
04:42 8.9 °F 8.0 °F 1015.5 in SW 3.2 mph 8.0 mph 94 % 0.0 in
04:47 8.9 °F 8.0 °F 1015.5 in WSW 1.6 mph 8.0 mph 94 % 0.0 in
04:52 8.9 °F 8.0 °F 1015.5 in SW 3.2 mph 8.0 mph 94 % 0.0 in
05:02 9.1 °F 8.2 °F 1015.5 in SW 1.6 mph 6.4 mph 94 % 0.0 in
05:12 9.1 °F 8.2 °F 1015.5 in WSW 1.6 mph 6.4 mph 94 % 0.0 in
05:17 9.2 °F 8.3 °F 1015.5 in WSW 1.6 mph 6.4 mph 94 % 0.0 in
05:22 9.2 °F 8.3 °F 1015.5 in WSW 4.8 mph 6.4 mph 94 % 0.0 in
05:32 9.2 °F 8.3 °F 1015.5 in Calm   8.0 mph 94 % 0.0 in
05:42 9.3 °F 8.4 °F 1015.5 in WSW 3.2 mph 8.0 mph 94 % 0.0 in
05:52 9.3 °F 8.4 °F 1015.5 in WSW 4.8 mph 6.4 mph 94 % 0.0 in
05:57 9.3 °F 8.4 °F 1015.5 in SW 3.2 mph 9.7 mph 94 % 0.0 in
06:02 9.3 °F 8.4 °F 1015.5 in SSW 3.2 mph 9.7 mph 94 % 0.0 in
06:12 9.3 °F 8.4 °F 1015.5 in SW 1.6 mph 9.7 mph 94 % 0.0 in
06:17 9.3 °F 8.4 °F 1015.5 in WSW 1.6 mph 8.0 mph 94 % 0.0 in
06:27 9.4 °F 8.5 °F 1015.5 in Calm   8.0 mph 94 % 0.0 in
06:32 9.4 °F 8.5 °F 1015.5 in West 1.6 mph 8.0 mph 94 % 0.0 in
06:42 9.4 °F 8.5 °F 1015.5 in WSW 3.2 mph 8.0 mph 94 % 0.0 in
06:47 9.4 °F 8.5 °F 1015.8 in West 1.6 mph 8.0 mph 94 % 0.0 in
06:52 9.5 °F 8.6 °F 1015.8 in SW 3.2 mph 8.0 mph 94 % 0.0 in
06:57 9.5 °F 8.6 °F 1015.8 in West 1.6 mph 8.0 mph 94 % 0.0 in
07:02 9.5 °F 8.6 °F 1016.1 in WSW 6.4 mph 8.0 mph 94 % 0.0 in
07:12 9.6 °F 8.7 °F 1015.8 in Calm   6.4 mph 94 % 0.0 in
07:17 9.6 °F 8.7 °F 1016.1 in Calm   6.4 mph 94 % 0.0 in
07:22 9.6 °F 8.7 °F 1016.1 in Calm   6.4 mph 94 % 0.0 in
07:32 9.6 °F 8.7 °F 1016.1 in Calm   9.7 mph 94 % 0.0 in
07:42 9.7 °F 8.6 °F 1016.1 in WSW 3.2 mph 6.4 mph 93 % 0.0 in
07:47 9.6 °F 8.5 °F 1016.1 in WSW 6.4 mph 8.0 mph 93 % 0.0 in
07:52 9.7 °F 8.5 °F 1016.5 in West 1.6 mph 8.0 mph 92 % 0.0 in
08:02 9.8 °F 8.6 °F 1016.5 in SW 3.2 mph 11.3 mph 92 % 0.0 in
08:12 9.9 °F 8.7 °F 1016.5 in WSW 11.3 mph 11.3 mph 92 % 0.0 in
08:17 9.9 °F 8.7 °F 1016.5 in SW 8.0 mph 9.7 mph 92 % 0.0 in
08:22 9.9 °F 8.5 °F 1016.5 in West 3.2 mph 9.7 mph 91 % 0.0 in
08:27 9.9 °F 8.5 °F 1016.5 in WSW 11.3 mph 12.9 mph 91 % 0.0 in
08:32 9.9 °F 8.5 °F 1016.8 in SW 8.0 mph 12.9 mph 91 % 0.0 in
08:42 9.8 °F 8.6 °F 1016.8 in SW 6.4 mph 16.1 mph 92 % 0.0 in
08:47 9.8 °F 8.6 °F 1016.8 in SW 3.2 mph 12.9 mph 92 % 0.0 in
08:52 9.7 °F 8.5 °F 1016.8 in SW 4.8 mph 12.9 mph 92 % 0.0 in
09:02 9.7 °F 8.6 °F 1016.8 in SW 4.8 mph 12.9 mph 93 % 0.5 in
09:12 9.8 °F 8.7 °F 1016.8 in WSW 3.2 mph 9.7 mph 93 % 0.5 in
09:17 9.8 °F 8.6 °F 1016.8 in WSW 6.4 mph 12.9 mph 92 % 0.8 in
09:22 10.1 °F 9.0 °F 1016.8 in WSW 6.4 mph 12.9 mph 93 % 0.8 in
09:32 10.2 °F 8.8 °F 1016.8 in South 6.4 mph 12.9 mph 91 % 0.8 in
09:42 10.5 °F 9.1 °F 1017.2 in WNW 6.4 mph 14.5 mph 91 % 0.8 in
09:47 10.6 °F 9.0 °F 1017.2 in West 4.8 mph 14.5 mph 90 % 0.5 in
09:52 10.6 °F 8.5 °F 1017.2 in WSW 6.4 mph 14.5 mph 87 % 0.5 in
10:02 10.9 °F 8.8 °F 1017.2 in West 4.8 mph 14.5 mph 87 % 0.5 in
10:12 10.9 °F 8.5 °F 1017.2 in SSW 8.0 mph 16.1 mph 85 % 0.3 in
10:17 10.9 °F 8.5 °F 1017.2 in WNW 4.8 mph 19.3 mph 85 % 0.0 in
10:22 10.9 °F 8.6 °F 1017.2 in West 4.8 mph 19.3 mph 86 % 0.0 in
10:32 10.4 °F 8.2 °F 1017.2 in WNW 3.2 mph 19.3 mph 86 % 0.0 in
10:37 10.2 °F 8.1 °F 1017.2 in WSW 8.0 mph 17.7 mph 87 % 0.0 in
10:42 10.0 °F 8.1 °F 1017.5 in SW 9.7 mph 17.7 mph 88 % 0.0 in
10:52 9.6 °F 8.0 °F 1017.2 in West 3.2 mph 14.5 mph 90 % 0.5 in
10:57 9.7 °F 8.1 °F 1017.2 in WNW 3.2 mph 14.5 mph 90 % 2.3 in
11:02 10.1 °F 8.9 °F 1017.2 in WSW 6.4 mph 14.5 mph 92 % 2.3 in
11:07 10.3 °F 8.7 °F 1017.2 in WNW 9.7 mph 14.5 mph 90 % 2.3 in
11:12 10.6 °F 8.7 °F 1017.2 in SW 8.0 mph 14.5 mph 88 % 2.3 in
11:17 10.7 °F 8.1 °F 1017.2 in WSW 9.7 mph 20.9 mph 84 % 2.3 in
11:22 11.0 °F 8.7 °F 1017.2 in SSW 8.0 mph 20.9 mph 86 % 2.3 in
11:32 12.1 °F 9.1 °F 1017.2 in WSW 12.9 mph 19.3 mph 82 % 2.3 in
11:37 12.3 °F 9.1 °F 1017.2 in WSW 9.7 mph 22.5 mph 81 % 2.3 in
11:47 12.5 °F 9.1 °F 1017.5 in WSW 17.7 mph 24.1 mph 80 % 0.8 in
11:52 12.2 °F 8.1 °F 1017.5 in WSW 20.9 mph 25.7 mph 76 % 0.0 in
12:02 12.7 °F 8.6 °F 1017.2 in SSW 12.9 mph 25.7 mph 76 % 0.0 in
12:07 12.7 °F 7.4 °F 1017.2 in WNW 9.7 mph 24.1 mph 70 % 0.0 in
12:12 12.7 °F 7.2 °F 1017.2 in West 17.7 mph 25.7 mph 69 % 0.0 in
12:17 12.7 °F 8.4 °F 1017.2 in SW 16.1 mph 25.7 mph 75 % 0.0 in
12:22 12.8 °F 7.9 °F 1017.2 in SW 6.4 mph 25.7 mph 72 % 0.0 in
12:27 12.9 °F 8.0 °F 1017.2 in WSW 12.9 mph 25.7 mph 72 % 0.0 in
12:32 12.9 °F 6.9 °F 1017.2 in SW 4.8 mph 20.9 mph 67 % 0.0 in
12:37 13.2 °F 7.4 °F 1017.2 in SW 9.7 mph 20.9 mph 68 % 0.0 in
12:42 13.3 °F 7.7 °F 1017.2 in WSW 12.9 mph 20.9 mph 69 % 0.0 in
12:47 13.5 °F 7.9 °F 1017.2 in SW 19.3 mph 24.1 mph 69 % 0.0 in
12:57 12.9 °F 8.0 °F 1017.2 in West 8.0 mph 27.4 mph 72 % 0.0 in
13:02 13.0 °F 8.1 °F 1017.2 in SW 11.3 mph 27.4 mph 72 % 0.0 in
13:07 13.6 °F 7.1 °F 1017.2 in SW 16.1 mph 20.9 mph 65 % 0.0 in
13:12 13.6 °F 6.5 °F 1017.2 in WSW 8.0 mph 20.9 mph 62 % 0.0 in
13:17 13.4 °F 7.2 °F 1017.2 in WSW 8.0 mph 22.5 mph 66 % 0.0 in
13:22 13.6 °F 7.6 °F 1017.2 in WSW 16.1 mph 22.5 mph 67 % 0.0 in
13:32 13.7 °F 7.7 °F 1017.2 in SW 12.9 mph 22.5 mph 67 % 0.0 in
13:37 13.9 °F 7.9 °F 1017.2 in SW 12.9 mph 22.5 mph 67 % 0.0 in
13:42 13.9 °F 7.2 °F 1017.2 in SSW 8.0 mph 25.7 mph 64 % 0.0 in
13:52 14.2 °F 7.0 °F 1017.2 in WSW 24.1 mph 25.7 mph 62 % 0.0 in
13:57 13.4 °F 8.2 °F 1017.2 in WSW 9.7 mph 35.4 mph 71 % 0.0 in
14:02 12.1 °F 8.0 °F 1017.5 in SW 20.9 mph 35.4 mph 76 % 0.0 in
14:07 11.4 °F 8.3 °F 1017.5 in WSW 24.1 mph 35.4 mph 81 % 0.0 in
14:17 11.0 °F 8.9 °F 1017.5 in WSW 11.3 mph 30.6 mph 87 % 0.3 in
14:22 11.0 °F 8.4 °F 1017.5 in WSW 8.0 mph 30.6 mph 84 % 0.3 in
14:32 10.8 °F 7.9 °F 1017.5 in SW 6.4 mph 24.1 mph 82 % 0.5 in
14:37 10.7 °F 7.9 °F 1017.5 in SW 6.4 mph 24.1 mph 83 % 0.5 in
14:42 10.8 °F 8.0 °F 1017.5 in WSW 12.9 mph 24.1 mph 83 % 0.5 in
14:52 11.6 °F 8.5 °F 1017.5 in SW 8.0 mph 17.7 mph 81 % 0.5 in
14:57 12.2 °F 8.7 °F 1017.2 in SSW 8.0 mph 17.7 mph 79 % 0.5 in
15:02 12.8 °F 8.9 °F 1017.2 in SW 3.2 mph 17.7 mph 77 % 0.5 in
15:07 13.2 °F 7.8 °F 1017.2 in WSW 12.9 mph 19.3 mph 70 % 0.5 in
15:12 13.5 °F 7.9 °F 1017.2 in South 9.7 mph 19.3 mph 69 % 0.3 in
15:17 13.4 °F 8.5 °F 1017.2 in SW 6.4 mph 24.1 mph 72 % 0.3 in
15:22 13.6 °F 7.6 °F 1017.2 in WSW 8.0 mph 24.1 mph 67 % 0.3 in
15:32 13.3 °F 6.9 °F 1017.2 in SW 17.7 mph 24.1 mph 65 % 0.0 in
15:37 13.1 °F 6.4 °F 1017.2 in SSW 9.7 mph 22.5 mph 64 % 0.0 in
15:42 13.1 °F 7.1 °F 1017.2 in WSW 9.7 mph 22.5 mph 67 % 0.0 in
15:47 13.4 °F 7.4 °F 1017.2 in West 14.5 mph 24.1 mph 67 % 0.0 in
15:57 13.9 °F 7.9 °F 1017.2 in SW 3.2 mph 22.5 mph 67 % 0.0 in
16:02 13.8 °F 7.6 °F 1017.2 in SW 11.3 mph 22.5 mph 66 % 0.0 in
16:07 13.8 °F 7.8 °F 1017.2 in WSW 8.0 mph 17.7 mph 67 % 0.0 in
16:12 13.6 °F 6.9 °F 1017.2 in WSW 9.7 mph 17.7 mph 64 % 0.0 in
16:17 13.3 °F 7.1 °F 1017.2 in WSW 11.3 mph 17.7 mph 66 % 0.0 in
16:22 13.2 °F 6.5 °F 1017.5 in West 11.3 mph 17.7 mph 64 % 0.0 in
16:27 13.1 °F 6.4 °F 1017.5 in SW 9.7 mph 20.9 mph 64 % 0.0 in
16:32 13.0 °F 7.0 °F 1017.5 in West 1.6 mph 20.9 mph 67 % 0.0 in
16:37 12.9 °F 6.9 °F 1017.2 in WSW 6.4 mph 12.9 mph 67 % 0.0 in
16:42 12.8 °F 6.8 °F 1017.5 in WSW 6.4 mph 12.9 mph 67 % 0.0 in
16:47 12.7 °F 6.9 °F 1017.5 in SSW 6.4 mph 16.1 mph 68 % 0.0 in
16:52 12.8 °F 7.9 °F 1017.5 in WSW 12.9 mph 16.1 mph 72 % 0.0 in
16:57 12.7 °F 7.4 °F 1017.5 in SW 9.7 mph 19.3 mph 70 % 0.0 in
17:02 12.9 °F 7.8 °F 1017.5 in WSW 9.7 mph 19.3 mph 71 % 0.0 in
17:07 13.1 °F 7.5 °F 1017.5 in WNW 14.5 mph 20.9 mph 69 % 0.0 in
17:12 12.8 °F 7.9 °F 1017.5 in WNW 9.7 mph 20.9 mph 72 % 0.0 in
17:17 12.4 °F 7.9 °F 1017.5 in WNW 3.2 mph 20.9 mph 74 % 0.0 in
17:22 12.0 °F 6.9 °F 1017.5 in West 11.3 mph 20.9 mph 71 % 0.0 in
17:32 11.5 °F 7.0 °F 1017.5 in WNW 3.2 mph 16.1 mph 74 % 0.0 in
17:37 11.5 °F 7.2 °F 1017.2 in NW 6.4 mph 14.5 mph 75 % 0.0 in
17:42 11.4 °F 6.9 °F 1017.2 in WNW 4.8 mph 14.5 mph 74 % 0.0 in
17:47 11.3 °F 7.2 °F 1017.5 in NW 3.2 mph 9.7 mph 76 % 0.0 in
17:52 11.0 °F 7.1 °F 1017.5 in Calm   9.7 mph 77 % 0.3 in
18:02 10.6 °F 7.5 °F 1018.2 in WNW 6.4 mph 6.4 mph 81 % 0.5 in
18:12 10.0 °F 7.4 °F 1018.2 in West 1.6 mph 20.9 mph 84 % 1.5 in
18:17 10.1 °F 7.7 °F 1017.8 in NW 3.2 mph 20.9 mph 85 % 1.5 in
18:22 10.2 °F 8.0 °F 1017.8 in NNW 3.2 mph 20.9 mph 86 % 1.5 in
18:27 10.2 °F 8.0 °F 1017.8 in NNW 6.4 mph 20.9 mph 86 % 1.5 in
18:32 10.1 °F 7.9 °F 1017.8 in WNW 4.8 mph 6.4 mph 86 % 1.5 in
18:37 10.2 °F 8.0 °F 1017.8 in NW 3.2 mph 6.4 mph 86 % 1.5 in
18:42 10.4 °F 8.0 °F 1017.8 in Calm   12.9 mph 85 % 1.5 in
18:47 10.9 °F 8.1 °F 1017.8 in North 4.8 mph 8.0 mph 83 % 1.5 in
18:52 10.9 °F 7.8 °F 1017.8 in NNW 6.4 mph 8.0 mph 81 % 1.5 in
19:02 11.4 °F 8.1 °F 1018.2 in North 1.6 mph 9.7 mph 80 % 0.8 in
19:12 11.5 °F 7.4 °F 1018.2 in North 1.6 mph 9.7 mph 76 % 0.0 in
19:22 11.1 °F 7.6 °F 1018.5 in North 1.6 mph 4.8 mph 79 % 0.0 in
19:27 10.8 °F 7.7 °F 1018.2 in Calm   6.4 mph 81 % 0.0 in
19:32 10.7 °F 7.8 °F 1018.5 in WNW 1.6 mph 6.4 mph 82 % 0.0 in
19:42 10.3 °F 7.7 °F 1018.2 in NE 1.6 mph 6.4 mph 84 % 0.5 in
19:52 9.9 °F 7.8 °F 1018.5 in Calm   6.4 mph 87 % 0.5 in
19:57 9.9 °F 7.8 °F 1018.2 in Calm   4.8 mph 87 % 0.5 in
20:02 9.8 °F 7.7 °F 1018.2 in Calm   4.8 mph 87 % 0.5 in
20:12 9.9 °F 8.0 °F 1018.2 in Calm   1.6 mph 88 % 0.5 in
20:17 9.9 °F 8.2 °F 1018.5 in Calm     89 % 0.5 in
20:22 10.0 °F 8.3 °F 1018.5 in Calm     89 % 0.5 in
20:32 9.9 °F 8.2 °F 1018.5 in Calm     89 % 0.5 in
20:42 9.8 °F 8.2 °F 1018.5 in Calm     90 % 0.0 in
20:47 9.9 °F 8.5 °F 1018.5 in Calm   1.6 mph 91 % 0.0 in
20:52 9.8 °F 8.4 °F 1018.5 in Calm   1.6 mph 91 % 0.0 in
20:57 9.7 °F 8.3 °F 1018.5 in Calm   1.6 mph 91 % 0.0 in
21:02 9.6 °F 8.2 °F 1018.5 in Calm   1.6 mph 91 % 0.0 in
21:07 9.5 °F 8.1 °F 1018.5 in Calm   1.6 mph 91 % 0.0 in
21:12 9.5 °F 8.3 °F 1018.5 in ESE 1.6 mph 1.6 mph 92 % 0.0 in
21:17 9.5 °F 8.3 °F 1018.5 in Calm   1.6 mph 92 % 0.0 in
21:22 9.5 °F 8.3 °F 1018.5 in Calm   1.6 mph 92 % 0.0 in
21:32 9.4 °F 8.2 °F 1018.5 in Calm   1.6 mph 92 % 0.0 in
21:37 9.3 °F 8.1 °F 1018.8 in WSW 3.2 mph 3.2 mph 92 % 0.0 in
21:42 9.3 °F 7.9 °F 1019.2 in WSW 16.1 mph 16.1 mph 91 % 0.8 in
21:52 8.8 °F 6.9 °F 1019.2 in WNW 1.6 mph 20.9 mph 88 % 1.5 in
21:57 8.8 °F 6.9 °F 1019.2 in West 1.6 mph 20.9 mph 88 % 1.8 in
22:02 8.7 °F 6.8 °F 1019.2 in Calm   20.9 mph 88 % 1.8 in
22:12 8.6 °F 6.9 °F 1019.2 in WNW 4.8 mph 9.7 mph 89 % 1.8 in
22:17 8.5 °F 6.8 °F 1019.2 in SSW 4.8 mph 9.7 mph 89 % 1.8 in
22:22 8.5 °F 7.0 °F 1019.2 in WSW 6.4 mph 9.7 mph 90 % 1.8 in
22:32 8.4 °F 7.0 °F 1019.2 in SSW 6.4 mph 11.3 mph 91 % 1.8 in
22:42 8.4 °F 7.2 °F 1019.2 in Calm   11.3 mph 92 % 0.5 in
22:47 8.4 °F 7.2 °F 1019.2 in SE 3.2 mph 8.0 mph 92 % 0.3 in
22:52 8.3 °F 7.2 °F 1019.2 in SSW 3.2 mph 8.0 mph 93 % 0.3 in
22:57 8.3 °F 7.2 °F 1019.2 in SSW 3.2 mph 8.0 mph 93 % 0.0 in
23:02 8.3 °F 7.2 °F 1019.2 in SSW 3.2 mph 8.0 mph 93 % 0.0 in
23:12 8.2 °F 7.1 °F 1019.2 in South 4.8 mph 6.4 mph 93 % 0.0 in
23:17 8.1 °F 7.2 °F 1019.2 in SSW 6.4 mph 8.0 mph 94 % 0.0 in
23:22 8.1 °F 7.2 °F 1019.2 in SW 9.7 mph 9.7 mph 94 % 0.0 in
23:32 8.1 °F 7.2 °F 1019.2 in SSW 9.7 mph 9.7 mph 94 % 0.0 in
23:42 8.1 °F 7.2 °F 1019.5 in SSW 3.2 mph 12.9 mph 94 % 0.0 in
23:47 8.1 °F 7.3 °F 1019.5 in SSW 4.8 mph 12.9 mph 95 % 0.0 in
23:52 8.1 °F 7.3 °F 1019.5 in SSW 3.2 mph 12.9 mph 95 % 0.0 in
Meteo18
Compliments of Weather Underground - 4 mb

Script developed by  Jim McMurry - jmcmurry@mwt.net Adapted for the template by  Wim van der Kuil - Leuven-Template.eu

You find our weather info also at:

European Weather Network

Weather Underground

Equipment we use:

Weather-station
Davis Vue

Weather-program
Meteobridge

Weather-server
Raspberry PI 2 B+

Provider
1 and 1

Davis Vue

Meteobridge

Raspberry PI 2 B+

1 and 1